sensor_id;sensor_type;location;lat;lon;timestamp;pressure;altitude;pressure_sealevel;temperature
79495;BMP180;68951;53.130;18.104;2024-03-06T00:00:07;101481.60;;;
79495;BMP180;68951;53.130;18.104;2024-03-06T00:02:37;101481.00;;;
79495;BMP180;68951;53.130;18.104;2024-03-06T00:05:04;101480.00;;;
79495;BMP180;68951;53.130;18.104;2024-03-06T00:07:34;101480.40;;;
79495;BMP180;68951;53.130;18.104;2024-03-06T00:10:00;101475.00;;;
79495;BMP180;68951;53.130;18.104;2024-03-06T00:12:28;101476.20;;;
79495;BMP180;68951;53.130;18.104;2024-03-06T00:14:54;101480.80;;;
79495;BMP180;68951;53.130;18.104;2024-03-06T00:17:21;101490.00;;;
79495;BMP180;68951;53.130;18.104;2024-03-06T00:19:48;101494.20;;;
79495;BMP180;68951;53.130;18.104;2024-03-06T00:22:15;101490.60;;;
79495;BMP180;68951;53.130;18.104;2024-03-06T00:24:41;101493.80;;;
79495;BMP180;68951;53.130;18.104;2024-03-06T00:27:08;101494.40;;;
79495;BMP180;68951;53.130;18.104;2024-03-06T00:29:36;101494.60;;;
79495;BMP180;68951;53.130;18.104;2024-03-06T00:32:05;101497.40;;;
79495;BMP180;68951;53.130;18.104;2024-03-06T00:34:31;101495.20;;;
79495;BMP180;68951;53.130;18.104;2024-03-06T00:36:58;101501.00;;;
79495;BMP180;68951;53.130;18.104;2024-03-06T00:39:25;101507.80;;;
79495;BMP180;68951;53.130;18.104;2024-03-06T00:41:53;101507.20;;;
79495;BMP180;68951;53.130;18.104;2024-03-06T00:44:20;101502.60;;;
79495;BMP180;68951;53.130;18.104;2024-03-06T00:46:47;101503.20;;;
79495;BMP180;68951;53.130;18.104;2024-03-06T00:49:13;101509.40;;;
79495;BMP180;68951;53.130;18.104;2024-03-06T00:51:40;101507.80;;;
79495;BMP180;68951;53.130;18.104;2024-03-06T00:54:07;101505.40;;;
79495;BMP180;68951;53.130;18.104;2024-03-06T00:56:40;101510.60;;;
79495;BMP180;68951;53.130;18.104;2024-03-06T00:59:07;101513.60;;;
79495;BMP180;68951;53.130;18.104;2024-03-06T01:01:34;101515.20;;;
79495;BMP180;68951;53.130;18.104;2024-03-06T01:04:01;101513.20;;;
79495;BMP180;68951;53.130;18.104;2024-03-06T01:06:29;101512.20;;;
79495;BMP180;68951;53.130;18.104;2024-03-06T01:08:56;101516.40;;;
79495;BMP180;68951;53.130;18.104;2024-03-06T01:11:25;101518.80;;;
79495;BMP180;68951;53.130;18.104;2024-03-06T01:13:53;101522.80;;;
79495;BMP180;68951;53.130;18.104;2024-03-06T01:16:20;101530.40;;;
79495;BMP180;68951;53.130;18.104;2024-03-06T01:18:47;101533.80;;;
79495;BMP180;68951;53.130;18.104;2024-03-06T01:21:14;101529.20;;;
79495;BMP180;68951;53.130;18.104;2024-03-06T01:23:41;101527.80;;;
79495;BMP180;68951;53.130;18.104;2024-03-06T01:26:10;101530.00;;;
79495;BMP180;68951;53.130;18.104;2024-03-06T01:28:39;101534.40;;;
79495;BMP180;68951;53.130;18.104;2024-03-06T01:31:06;101533.80;;;
79495;BMP180;68951;53.130;18.104;2024-03-06T01:33:33;101535.80;;;
79495;BMP180;68951;53.130;18.104;2024-03-06T01:36:00;101537.20;;;
79495;BMP180;68951;53.130;18.104;2024-03-06T01:38:27;101541.60;;;
79495;BMP180;68951;53.130;18.104;2024-03-06T01:40:54;101539.80;;;
79495;BMP180;68951;53.130;18.104;2024-03-06T01:43:24;101538.40;;;
79495;BMP180;68951;53.130;18.104;2024-03-06T01:45:52;101539.00;;;
79495;BMP180;68951;53.130;18.104;2024-03-06T01:48:27;101542.40;;;
79495;BMP180;68951;53.130;18.104;2024-03-06T01:50:57;101534.20;;;
79495;BMP180;68951;53.130;18.104;2024-03-06T01:53:28;101540.80;;;
79495;BMP180;68951;53.130;18.104;2024-03-06T01:55:57;101536.80;;;
79495;BMP180;68951;53.130;18.104;2024-03-06T01:58:25;101542.60;;;
79495;BMP180;68951;53.130;18.104;2024-03-06T02:00:52;101546.40;;;
79495;BMP180;68951;53.130;18.104;2024-03-06T02:03:19;101547.40;;;
79495;BMP180;68951;53.130;18.104;2024-03-06T02:05:51;101544.40;;;
79495;BMP180;68951;53.130;18.104;2024-03-06T02:08:18;101538.00;;;
79495;BMP180;68951;53.130;18.104;2024-03-06T02:10:45;101537.80;;;
79495;BMP180;68951;53.130;18.104;2024-03-06T02:13:13;101548.40;;;
79495;BMP180;68951;53.130;18.104;2024-03-06T02:15:41;101549.80;;;
79495;BMP180;68951;53.130;18.104;2024-03-06T02:18:08;101548.00;;;
79495;BMP180;68951;53.130;18.104;2024-03-06T02:20:38;101546.00;;;
79495;BMP180;68951;53.130;18.104;2024-03-06T02:23:06;101546.00;;;
79495;BMP180;68951;53.130;18.104;2024-03-06T02:25:34;101543.60;;;
79495;BMP180;68951;53.130;18.104;2024-03-06T02:28:00;101546.60;;;
79495;BMP180;68951;53.130;18.104;2024-03-06T02:30:27;101539.80;;;
79495;BMP180;68951;53.130;18.104;2024-03-06T02:32:58;101540.80;;;
79495;BMP180;68951;53.130;18.104;2024-03-06T02:35:25;101544.00;;;
79495;BMP180;68951;53.130;18.104;2024-03-06T02:37:51;101544.00;;;
79495;BMP180;68951;53.130;18.104;2024-03-06T02:40:18;101534.60;;;
79495;BMP180;68951;53.130;18.104;2024-03-06T02:42:45;101538.20;;;
79495;BMP180;68951;53.130;18.104;2024-03-06T02:45:12;101545.80;;;
79495;BMP180;68951;53.130;18.104;2024-03-06T02:47:39;101545.00;;;
79495;BMP180;68951;53.130;18.104;2024-03-06T02:50:07;101542.60;;;
79495;BMP180;68951;53.130;18.104;2024-03-06T02:52:34;101544.00;;;
79495;BMP180;68951;53.130;18.104;2024-03-06T02:55:02;101545.60;;;
79495;BMP180;68951;53.130;18.104;2024-03-06T02:57:31;101548.20;;;
79495;BMP180;68951;53.130;18.104;2024-03-06T02:59:59;101547.80;;;
79495;BMP180;68951;53.130;18.104;2024-03-06T03:02:26;101553.00;;;
79495;BMP180;68951;53.130;18.104;2024-03-06T03:04:54;101549.20;;;
79495;BMP180;68951;53.130;18.104;2024-03-06T03:07:21;101551.20;;;
79495;BMP180;68951;53.130;18.104;2024-03-06T03:09:48;101548.40;;;
79495;BMP180;68951;53.130;18.104;2024-03-06T03:12:15;101550.80;;;
79495;BMP180;68951;53.130;18.104;2024-03-06T03:14:42;101550.20;;;
79495;BMP180;68951;53.130;18.104;2024-03-06T03:17:09;101555.80;;;
79495;BMP180;68951;53.130;18.104;2024-03-06T03:19:36;101560.60;;;
79495;BMP180;68951;53.130;18.104;2024-03-06T03:22:06;101562.60;;;
79495;BMP180;68951;53.130;18.104;2024-03-06T03:24:34;101557.40;;;
79495;BMP180;68951;53.130;18.104;2024-03-06T03:27:01;101560.60;;;
79495;BMP180;68951;53.130;18.104;2024-03-06T03:29:29;101562.00;;;
79495;BMP180;68951;53.130;18.104;2024-03-06T03:31:56;101568.60;;;
79495;BMP180;68951;53.130;18.104;2024-03-06T03:34:23;101569.60;;;
79495;BMP180;68951;53.130;18.104;2024-03-06T03:36:50;101569.40;;;
79495;BMP180;68951;53.130;18.104;2024-03-06T03:39:17;101571.40;;;
79495;BMP180;68951;53.130;18.104;2024-03-06T03:41:48;101575.40;;;
79495;BMP180;68951;53.130;18.104;2024-03-06T03:44:17;101575.80;;;
79495;BMP180;68951;53.130;18.104;2024-03-06T03:46:47;101570.60;;;
79495;BMP180;68951;53.130;18.104;2024-03-06T03:49:14;101570.20;;;
79495;BMP180;68951;53.130;18.104;2024-03-06T03:51:41;101573.00;;;
79495;BMP180;68951;53.130;18.104;2024-03-06T03:54:08;101574.60;;;
79495;BMP180;68951;53.130;18.104;2024-03-06T03:56:35;101576.00;;;
79495;BMP180;68951;53.130;18.104;2024-03-06T03:59:02;101570.60;;;
79495;BMP180;68951;53.130;18.104;2024-03-06T04:01:29;101575.40;;;
79495;BMP180;68951;53.130;18.104;2024-03-06T04:03:56;101578.20;;;
79495;BMP180;68951;53.130;18.104;2024-03-06T04:06:23;101578.80;;;
79495;BMP180;68951;53.130;18.104;2024-03-06T04:08:50;101577.20;;;
79495;BMP180;68951;53.130;18.104;2024-03-06T04:11:18;101577.80;;;
79495;BMP180;68951;53.130;18.104;2024-03-06T04:13:44;101577.20;;;
79495;BMP180;68951;53.130;18.104;2024-03-06T04:16:17;101581.40;;;
79495;BMP180;68951;53.130;18.104;2024-03-06T04:18:45;101583.40;;;
79495;BMP180;68951;53.130;18.104;2024-03-06T04:21:12;101584.20;;;
79495;BMP180;68951;53.130;18.104;2024-03-06T04:23:41;101581.40;;;
79495;BMP180;68951;53.130;18.104;2024-03-06T04:26:10;101578.80;;;
79495;BMP180;68951;53.130;18.104;2024-03-06T04:28:37;101577.60;;;
79495;BMP180;68951;53.130;18.104;2024-03-06T04:31:05;101576.20;;;
79495;BMP180;68951;53.130;18.104;2024-03-06T04:33:32;101575.60;;;
79495;BMP180;68951;53.130;18.104;2024-03-06T04:36:02;101576.20;;;
79495;BMP180;68951;53.130;18.104;2024-03-06T04:38:29;101575.20;;;
79495;BMP180;68951;53.130;18.104;2024-03-06T04:40:56;101576.00;;;
79495;BMP180;68951;53.130;18.104;2024-03-06T04:43:23;101576.40;;;
79495;BMP180;68951;53.130;18.104;2024-03-06T04:45:50;101572.40;;;
79495;BMP180;68951;53.130;18.104;2024-03-06T04:48:17;101577.80;;;
79495;BMP180;68951;53.130;18.104;2024-03-06T04:50:44;101573.40;;;
79495;BMP180;68951;53.130;18.104;2024-03-06T04:53:11;101576.00;;;
79495;BMP180;68951;53.130;18.104;2024-03-06T04:55:38;101580.20;;;
79495;BMP180;68951;53.130;18.104;2024-03-06T04:58:05;101575.80;;;
79495;BMP180;68951;53.130;18.104;2024-03-06T05:00:33;101579.20;;;
79495;BMP180;68951;53.130;18.104;2024-03-06T05:03:00;101587.80;;;
79495;BMP180;68951;53.130;18.104;2024-03-06T05:05:27;101582.40;;;
79495;BMP180;68951;53.130;18.104;2024-03-06T05:07:55;101586.60;;;
79495;BMP180;68951;53.130;18.104;2024-03-06T05:10:23;101590.80;;;
79495;BMP180;68951;53.130;18.104;2024-03-06T05:12:50;101586.20;;;
79495;BMP180;68951;53.130;18.104;2024-03-06T05:15:17;101586.60;;;
79495;BMP180;68951;53.130;18.104;2024-03-06T05:17:45;101585.00;;;
79495;BMP180;68951;53.130;18.104;2024-03-06T05:20:12;101593.60;;;
79495;BMP180;68951;53.130;18.104;2024-03-06T05:22:39;101596.40;;;
79495;BMP180;68951;53.130;18.104;2024-03-06T05:25:06;101598.80;;;
79495;BMP180;68951;53.130;18.104;2024-03-06T05:27:33;101606.40;;;
79495;BMP180;68951;53.130;18.104;2024-03-06T05:30:00;101615.20;;;
79495;BMP180;68951;53.130;18.104;2024-03-06T05:32:26;101609.40;;;
79495;BMP180;68951;53.130;18.104;2024-03-06T05:34:53;101614.40;;;
79495;BMP180;68951;53.130;18.104;2024-03-06T05:37:20;101618.60;;;
79495;BMP180;68951;53.130;18.104;2024-03-06T05:39:47;101617.60;;;
79495;BMP180;68951;53.130;18.104;2024-03-06T05:42:14;101627.20;;;
79495;BMP180;68951;53.130;18.104;2024-03-06T05:44:42;101627.00;;;
79495;BMP180;68951;53.130;18.104;2024-03-06T05:47:09;101632.40;;;
79495;BMP180;68951;53.130;18.104;2024-03-06T05:49:36;101633.20;;;
79495;BMP180;68951;53.130;18.104;2024-03-06T05:52:03;101636.60;;;
79495;BMP180;68951;53.130;18.104;2024-03-06T05:54:29;101638.40;;;
79495;BMP180;68951;53.130;18.104;2024-03-06T05:57:00;101638.80;;;
79495;BMP180;68951;53.130;18.104;2024-03-06T05:59:26;101641.40;;;
79495;BMP180;68951;53.130;18.104;2024-03-06T06:01:53;101642.60;;;
79495;BMP180;68951;53.130;18.104;2024-03-06T06:04:20;101650.40;;;
79495;BMP180;68951;53.130;18.104;2024-03-06T06:06:47;101648.20;;;
79495;BMP180;68951;53.130;18.104;2024-03-06T06:09:13;101648.20;;;
79495;BMP180;68951;53.130;18.104;2024-03-06T06:11:43;101650.20;;;
79495;BMP180;68951;53.130;18.104;2024-03-06T06:14:10;101645.80;;;
79495;BMP180;68951;53.130;18.104;2024-03-06T06:16:40;101645.80;;;
79495;BMP180;68951;53.130;18.104;2024-03-06T06:19:09;101651.00;;;
79495;BMP180;68951;53.130;18.104;2024-03-06T06:21:36;101655.20;;;
79495;BMP180;68951;53.130;18.104;2024-03-06T06:24:04;101658.60;;;
79495;BMP180;68951;53.130;18.104;2024-03-06T06:26:31;101660.80;;;
79495;BMP180;68951;53.130;18.104;2024-03-06T06:28:59;101666.80;;;
79495;BMP180;68951;53.130;18.104;2024-03-06T06:31:26;101672.60;;;
79495;BMP180;68951;53.130;18.104;2024-03-06T06:33:53;101669.80;;;
79495;BMP180;68951;53.130;18.104;2024-03-06T06:36:20;101673.40;;;
79495;BMP180;68951;53.130;18.104;2024-03-06T06:38:48;101672.80;;;
79495;BMP180;68951;53.130;18.104;2024-03-06T06:41:17;101675.20;;;
79495;BMP180;68951;53.130;18.104;2024-03-06T06:43:44;101671.80;;;
79495;BMP180;68951;53.130;18.104;2024-03-06T06:46:11;101672.60;;;
79495;BMP180;68951;53.130;18.104;2024-03-06T06:48:38;101679.20;;;
79495;BMP180;68951;53.130;18.104;2024-03-06T06:51:05;101675.80;;;
79495;BMP180;68951;53.130;18.104;2024-03-06T06:53:32;101678.00;;;
79495;BMP180;68951;53.130;18.104;2024-03-06T06:55:58;101677.20;;;
79495;BMP180;68951;53.130;18.104;2024-03-06T06:58:25;101677.00;;;
79495;BMP180;68951;53.130;18.104;2024-03-06T07:00:53;101672.40;;;
79495;BMP180;68951;53.130;18.104;2024-03-06T07:03:20;101677.60;;;
79495;BMP180;68951;53.130;18.104;2024-03-06T07:05:50;101675.60;;;
79495;BMP180;68951;53.130;18.104;2024-03-06T07:08:17;101679.60;;;
79495;BMP180;68951;53.130;18.104;2024-03-06T07:10:45;101680.40;;;
79495;BMP180;68951;53.130;18.104;2024-03-06T07:13:12;101686.60;;;
79495;BMP180;68951;53.130;18.104;2024-03-06T07:15:38;101688.40;;;
79495;BMP180;68951;53.130;18.104;2024-03-06T07:18:06;101685.60;;;
79495;BMP180;68951;53.130;18.104;2024-03-06T07:20:34;101688.20;;;
79495;BMP180;68951;53.130;18.104;2024-03-06T07:23:00;101693.00;;;
79495;BMP180;68951;53.130;18.104;2024-03-06T07:25:27;101696.00;;;
79495;BMP180;68951;53.130;18.104;2024-03-06T07:27:54;101694.80;;;
79495;BMP180;68951;53.130;18.104;2024-03-06T07:30:21;101697.40;;;
79495;BMP180;68951;53.130;18.104;2024-03-06T07:32:48;101698.80;;;
79495;BMP180;68951;53.130;18.104;2024-03-06T07:35:15;101704.60;;;
79495;BMP180;68951;53.130;18.104;2024-03-06T07:37:44;101702.60;;;
79495;BMP180;68951;53.130;18.104;2024-03-06T07:40:11;101707.80;;;
79495;BMP180;68951;53.130;18.104;2024-03-06T07:42:38;101713.80;;;
79495;BMP180;68951;53.130;18.104;2024-03-06T07:45:06;101719.00;;;
79495;BMP180;68951;53.130;18.104;2024-03-06T07:47:36;101719.80;;;
79495;BMP180;68951;53.130;18.104;2024-03-06T07:50:05;101720.40;;;
79495;BMP180;68951;53.130;18.104;2024-03-06T07:52:36;101725.60;;;
79495;BMP180;68951;53.130;18.104;2024-03-06T07:55:06;101728.40;;;
79495;BMP180;68951;53.130;18.104;2024-03-06T07:57:32;101728.60;;;
79495;BMP180;68951;53.130;18.104;2024-03-06T07:59:58;101733.60;;;
79495;BMP180;68951;53.130;18.104;2024-03-06T08:02:24;101731.20;;;
79495;BMP180;68951;53.130;18.104;2024-03-06T08:04:50;101732.00;;;
79495;BMP180;68951;53.130;18.104;2024-03-06T08:07:15;101735.40;;;
79495;BMP180;68951;53.130;18.104;2024-03-06T08:09:41;101737.20;;;
79495;BMP180;68951;53.130;18.104;2024-03-06T08:12:08;101739.40;;;
79495;BMP180;68951;53.130;18.104;2024-03-06T08:14:34;101743.80;;;
79495;BMP180;68951;53.130;18.104;2024-03-06T08:17:00;101748.60;;;
79495;BMP180;68951;53.130;18.104;2024-03-06T08:19:26;101746.40;;;
79495;BMP180;68951;53.130;18.104;2024-03-06T08:21:52;101744.60;;;
79495;BMP180;68951;53.130;18.104;2024-03-06T08:24:17;101747.20;;;
79495;BMP180;68951;53.130;18.104;2024-03-06T08:26:43;101748.00;;;
79495;BMP180;68951;53.130;18.104;2024-03-06T08:29:09;101749.20;;;
79495;BMP180;68951;53.130;18.104;2024-03-06T08:31:35;101744.40;;;
79495;BMP180;68951;53.130;18.104;2024-03-06T08:34:00;101753.20;;;
79495;BMP180;68951;53.130;18.104;2024-03-06T08:36:26;101752.40;;;
79495;BMP180;68951;53.130;18.104;2024-03-06T08:38:52;101754.80;;;
79495;BMP180;68951;53.130;18.104;2024-03-06T08:41:18;101758.80;;;
79495;BMP180;68951;53.130;18.104;2024-03-06T08:43:44;101757.40;;;
79495;BMP180;68951;53.130;18.104;2024-03-06T08:46:10;101759.80;;;
79495;BMP180;68951;53.130;18.104;2024-03-06T08:48:36;101759.60;;;
79495;BMP180;68951;53.130;18.104;2024-03-06T08:51:02;101761.80;;;
79495;BMP180;68951;53.130;18.104;2024-03-06T08:53:28;101763.60;;;
79495;BMP180;68951;53.130;18.104;2024-03-06T08:55:54;101761.20;;;
79495;BMP180;68951;53.130;18.104;2024-03-06T08:58:20;101759.20;;;
79495;BMP180;68951;53.130;18.104;2024-03-06T09:00:47;101764.00;;;
79495;BMP180;68951;53.130;18.104;2024-03-06T09:03:14;101759.80;;;
79495;BMP180;68951;53.130;18.104;2024-03-06T09:05:41;101762.20;;;
79495;BMP180;68951;53.130;18.104;2024-03-06T09:08:07;101761.80;;;
79495;BMP180;68951;53.130;18.104;2024-03-06T09:10:33;101762.20;;;
79495;BMP180;68951;53.130;18.104;2024-03-06T09:12:59;101762.20;;;
79495;BMP180;68951;53.130;18.104;2024-03-06T09:15:25;101764.60;;;
79495;BMP180;68951;53.130;18.104;2024-03-06T09:17:51;101763.80;;;
79495;BMP180;68951;53.130;18.104;2024-03-06T09:20:17;101767.60;;;
79495;BMP180;68951;53.130;18.104;2024-03-06T09:22:43;101768.80;;;
79495;BMP180;68951;53.130;18.104;2024-03-06T09:25:10;101772.80;;;
79495;BMP180;68951;53.130;18.104;2024-03-06T09:27:37;101764.00;;;
79495;BMP180;68951;53.130;18.104;2024-03-06T09:30:04;101766.20;;;
79495;BMP180;68951;53.130;18.104;2024-03-06T09:32:30;101769.80;;;
79495;BMP180;68951;53.130;18.104;2024-03-06T09:34:56;101770.60;;;
79495;BMP180;68951;53.130;18.104;2024-03-06T09:37:22;101773.80;;;
79495;BMP180;68951;53.130;18.104;2024-03-06T09:39:47;101771.60;;;
79495;BMP180;68951;53.130;18.104;2024-03-06T09:42:15;101771.60;;;
79495;BMP180;68951;53.130;18.104;2024-03-06T09:44:41;101771.00;;;
79495;BMP180;68951;53.130;18.104;2024-03-06T09:47:13;101772.20;;;
79495;BMP180;68951;53.130;18.104;2024-03-06T09:49:40;101772.20;;;
79495;BMP180;68951;53.130;18.104;2024-03-06T09:52:07;101773.60;;;
79495;BMP180;68951;53.130;18.104;2024-03-06T09:54:33;101779.60;;;
79495;BMP180;68951;53.130;18.104;2024-03-06T09:56:59;101780.80;;;
79495;BMP180;68951;53.130;18.104;2024-03-06T09:59:25;101781.80;;;
79495;BMP180;68951;53.130;18.104;2024-03-06T10:01:56;101782.40;;;
79495;BMP180;68951;53.130;18.104;2024-03-06T10:04:25;101783.20;;;
79495;BMP180;68951;53.130;18.104;2024-03-06T10:06:59;101791.40;;;
79495;BMP180;68951;53.130;18.104;2024-03-06T10:09:27;101791.80;;;
79495;BMP180;68951;53.130;18.104;2024-03-06T10:11:53;101796.40;;;
79495;BMP180;68951;53.130;18.104;2024-03-06T10:14:21;101798.60;;;
79495;BMP180;68951;53.130;18.104;2024-03-06T10:17:00;101803.00;;;
79495;BMP180;68951;53.130;18.104;2024-03-06T10:19:29;101802.80;;;
79495;BMP180;68951;53.130;18.104;2024-03-06T10:21:56;101803.20;;;
79495;BMP180;68951;53.130;18.104;2024-03-06T10:24:27;101805.00;;;
79495;BMP180;68951;53.130;18.104;2024-03-06T10:26:58;101804.60;;;
79495;BMP180;68951;53.130;18.104;2024-03-06T10:29:29;101802.00;;;
79495;BMP180;68951;53.130;18.104;2024-03-06T10:31:58;101807.20;;;
79495;BMP180;68951;53.130;18.104;2024-03-06T10:34:27;101807.00;;;
79495;BMP180;68951;53.130;18.104;2024-03-06T10:37:03;101807.60;;;
79495;BMP180;68951;53.130;18.104;2024-03-06T10:39:42;101805.40;;;
79495;BMP180;68951;53.130;18.104;2024-03-06T10:42:13;101808.40;;;
79495;BMP180;68951;53.130;18.104;2024-03-06T10:44:51;101812.00;;;
79495;BMP180;68951;53.130;18.104;2024-03-06T10:47:28;101814.60;;;
79495;BMP180;68951;53.130;18.104;2024-03-06T10:49:59;101813.00;;;
79495;BMP180;68951;53.130;18.104;2024-03-06T10:52:27;101815.60;;;
79495;BMP180;68951;53.130;18.104;2024-03-06T10:54:58;101812.60;;;
79495;BMP180;68951;53.130;18.104;2024-03-06T10:57:25;101813.60;;;
79495;BMP180;68951;53.130;18.104;2024-03-06T10:59:52;101814.80;;;
79495;BMP180;68951;53.130;18.104;2024-03-06T11:02:20;101816.80;;;
79495;BMP180;68951;53.130;18.104;2024-03-06T11:04:48;101817.00;;;
79495;BMP180;68951;53.130;18.104;2024-03-06T11:07:14;101815.40;;;
79495;BMP180;68951;53.130;18.104;2024-03-06T11:09:40;101819.60;;;
79495;BMP180;68951;53.130;18.104;2024-03-06T11:12:07;101817.60;;;
79495;BMP180;68951;53.130;18.104;2024-03-06T11:14:36;101817.80;;;
79495;BMP180;68951;53.130;18.104;2024-03-06T11:17:11;101821.40;;;
79495;BMP180;68951;53.130;18.104;2024-03-06T11:28:21;101822.60;;;
79495;BMP180;68951;53.130;18.104;2024-03-06T11:30:55;101825.40;;;
79495;BMP180;68951;53.130;18.104;2024-03-06T11:33:21;101824.20;;;
79495;BMP180;68951;53.130;18.104;2024-03-06T11:36:27;101818.60;;;
79495;BMP180;68951;53.130;18.104;2024-03-06T11:41:29;101825.20;;;
79495;BMP180;68951;53.130;18.104;2024-03-06T11:43:57;101825.60;;;
79495;BMP180;68951;53.130;18.104;2024-03-06T11:47:02;101825.20;;;
79495;BMP180;68951;53.130;18.104;2024-03-06T11:49:31;101831.40;;;
79495;BMP180;68951;53.130;18.104;2024-03-06T11:52:05;101829.40;;;
79495;BMP180;68951;53.130;18.104;2024-03-06T11:54:32;101831.60;;;
79495;BMP180;68951;53.130;18.104;2024-03-06T11:57:01;101834.40;;;
79495;BMP180;68951;53.130;18.104;2024-03-06T11:59:33;101838.20;;;
79495;BMP180;68951;53.130;18.104;2024-03-06T12:02:04;101837.00;;;
79495;BMP180;68951;53.130;18.104;2024-03-06T12:04:32;101836.40;;;
79495;BMP180;68951;53.130;18.104;2024-03-06T12:07:04;101834.00;;;
79495;BMP180;68951;53.130;18.104;2024-03-06T12:09:38;101839.80;;;
79495;BMP180;68951;53.130;18.104;2024-03-06T12:12:06;101841.40;;;
79495;BMP180;68951;53.130;18.104;2024-03-06T12:14:35;101841.20;;;
79495;BMP180;68951;53.130;18.104;2024-03-06T12:17:02;101838.20;;;
79495;BMP180;68951;53.130;18.104;2024-03-06T12:19:35;101838.40;;;
79495;BMP180;68951;53.130;18.104;2024-03-06T12:22:04;101840.40;;;
79495;BMP180;68951;53.130;18.104;2024-03-06T12:24:31;101839.80;;;
79495;BMP180;68951;53.130;18.104;2024-03-06T12:27:06;101842.00;;;
79495;BMP180;68951;53.130;18.104;2024-03-06T12:29:34;101839.80;;;
79495;BMP180;68951;53.130;18.104;2024-03-06T12:32:04;101842.80;;;
79495;BMP180;68951;53.130;18.104;2024-03-06T12:34:30;101842.20;;;
79495;BMP180;68951;53.130;18.104;2024-03-06T12:36:56;101848.20;;;
79495;BMP180;68951;53.130;18.104;2024-03-06T12:39:33;101847.60;;;
79495;BMP180;68951;53.130;18.104;2024-03-06T12:41:59;101848.40;;;
79495;BMP180;68951;53.130;18.104;2024-03-06T12:44:25;101850.20;;;
79495;BMP180;68951;53.130;18.104;2024-03-06T12:46:50;101846.80;;;
79495;BMP180;68951;53.130;18.104;2024-03-06T12:49:16;101854.80;;;
79495;BMP180;68951;53.130;18.104;2024-03-06T12:51:45;101849.00;;;
79495;BMP180;68951;53.130;18.104;2024-03-06T12:54:11;101854.00;;;
79495;BMP180;68951;53.130;18.104;2024-03-06T12:56:37;101852.00;;;
79495;BMP180;68951;53.130;18.104;2024-03-06T12:59:03;101849.40;;;
79495;BMP180;68951;53.130;18.104;2024-03-06T13:01:30;101849.00;;;
79495;BMP180;68951;53.130;18.104;2024-03-06T13:03:56;101848.20;;;
79495;BMP180;68951;53.130;18.104;2024-03-06T13:06:22;101853.20;;;
79495;BMP180;68951;53.130;18.104;2024-03-06T13:08:48;101851.60;;;
79495;BMP180;68951;53.130;18.104;2024-03-06T13:11:14;101855.60;;;
79495;BMP180;68951;53.130;18.104;2024-03-06T13:13:40;101858.40;;;
79495;BMP180;68951;53.130;18.104;2024-03-06T13:16:06;101857.00;;;
79495;BMP180;68951;53.130;18.104;2024-03-06T13:18:32;101855.60;;;
79495;BMP180;68951;53.130;18.104;2024-03-06T13:20:57;101856.00;;;
79495;BMP180;68951;53.130;18.104;2024-03-06T13:23:24;101858.80;;;
79495;BMP180;68951;53.130;18.104;2024-03-06T13:25:50;101855.60;;;
79495;BMP180;68951;53.130;18.104;2024-03-06T13:28:16;101855.60;;;
79495;BMP180;68951;53.130;18.104;2024-03-06T13:30:41;101852.00;;;
79495;BMP180;68951;53.130;18.104;2024-03-06T13:33:07;101850.80;;;
79495;BMP180;68951;53.130;18.104;2024-03-06T13:35:33;101846.60;;;
79495;BMP180;68951;53.130;18.104;2024-03-06T13:37:59;101847.20;;;
79495;BMP180;68951;53.130;18.104;2024-03-06T13:40:25;101853.00;;;
79495;BMP180;68951;53.130;18.104;2024-03-06T13:42:52;101848.40;;;
79495;BMP180;68951;53.130;18.104;2024-03-06T13:45:20;101851.40;;;
79495;BMP180;68951;53.130;18.104;2024-03-06T13:47:46;101848.00;;;
79495;BMP180;68951;53.130;18.104;2024-03-06T13:50:14;101845.40;;;
79495;BMP180;68951;53.130;18.104;2024-03-06T13:52:42;101846.80;;;
79495;BMP180;68951;53.130;18.104;2024-03-06T13:55:09;101848.20;;;
79495;BMP180;68951;53.130;18.104;2024-03-06T13:57:37;101841.80;;;
79495;BMP180;68951;53.130;18.104;2024-03-06T14:00:08;101846.40;;;
79495;BMP180;68951;53.130;18.104;2024-03-06T14:02:44;101846.40;;;
79495;BMP180;68951;53.130;18.104;2024-03-06T14:05:14;101845.00;;;
79495;BMP180;68951;53.130;18.104;2024-03-06T14:07:40;101848.60;;;
79495;BMP180;68951;53.130;18.104;2024-03-06T14:10:07;101850.80;;;
79495;BMP180;68951;53.130;18.104;2024-03-06T14:12:38;101852.00;;;
79495;BMP180;68951;53.130;18.104;2024-03-06T14:15:06;101850.20;;;
79495;BMP180;68951;53.130;18.104;2024-03-06T14:17:38;101853.40;;;
79495;BMP180;68951;53.130;18.104;2024-03-06T14:20:05;101849.40;;;
79495;BMP180;68951;53.130;18.104;2024-03-06T14:22:31;101846.60;;;
79495;BMP180;68951;53.130;18.104;2024-03-06T14:24:57;101847.40;;;
79495;BMP180;68951;53.130;18.104;2024-03-06T14:27:23;101852.40;;;
79495;BMP180;68951;53.130;18.104;2024-03-06T14:29:49;101852.60;;;
79495;BMP180;68951;53.130;18.104;2024-03-06T14:32:18;101852.20;;;
79495;BMP180;68951;53.130;18.104;2024-03-06T14:34:44;101853.40;;;
79495;BMP180;68951;53.130;18.104;2024-03-06T14:37:10;101856.20;;;
79495;BMP180;68951;53.130;18.104;2024-03-06T14:39:36;101857.80;;;
79495;BMP180;68951;53.130;18.104;2024-03-06T14:42:02;101862.60;;;
79495;BMP180;68951;53.130;18.104;2024-03-06T14:44:30;101862.20;;;
79495;BMP180;68951;53.130;18.104;2024-03-06T14:46:57;101858.80;;;
79495;BMP180;68951;53.130;18.104;2024-03-06T14:49:23;101863.00;;;
79495;BMP180;68951;53.130;18.104;2024-03-06T14:51:49;101870.00;;;
79495;BMP180;68951;53.130;18.104;2024-03-06T14:54:15;101869.40;;;
79495;BMP180;68951;53.130;18.104;2024-03-06T14:56:41;101871.60;;;
79495;BMP180;68951;53.130;18.104;2024-03-06T14:59:07;101870.60;;;
79495;BMP180;68951;53.130;18.104;2024-03-06T15:01:33;101876.20;;;